Time;durP1;ratioP1;P1;durP2;ratioP2;P2;SDS_P1;SDS_P2;PMS_P1;PMS_P2;Temp;Humidity;BMP_temperature;BMP_pressure;BME280_temperature;BME280_humidity;BME280_pressure;Samples;Min_cycle;Max_cycle;Signal;HPM_P1;HPM_P2
2023/10/14 00:01:24;;;;;;;12.98;7.80;;;;;;;16.16;84.09;97478.81;5012158;28;20040;-80
2023/10/14 00:03:50;;;;;;;10.85;6.97;;;;;;;16.18;84.07;97473.91;5027873;28;20025;-80
2023/10/14 00:06:17;;;;;;;14.57;8.48;;;;;;;16.20;84.04;97483.25;4994957;28;20064;-81
2023/10/14 00:09:01;;;;;;;13.10;8.43;;;;;;;16.13;84.87;97485.63;5014154;28;20079;-80
2023/10/14 00:11:40;;;;;;;10.38;7.25;;;;;;;16.20;84.93;97485.13;5025979;28;20029;-81
2023/10/14 00:14:15;;;;;;;10.95;8.20;;;;;;;16.12;85.61;97464.41;5025603;28;20088;-80
2023/10/14 00:16:51;;;;;;;15.25;7.53;;;;;;;16.03;85.76;97450.16;5024325;28;20551;-80
2023/10/14 00:19:18;;;;;;;23.42;8.73;;;;;;;16.05;87.36;97453.31;5006791;28;20045;-80
2023/10/14 00:21:45;;;;;;;17.23;7.68;;;;;;;16.02;86.98;97433.22;5026687;28;20041;-80
2023/10/14 00:24:25;;;;;;;12.48;7.63;;;;;;;16.08;87.57;97431.94;5012205;28;20033;-80
2023/10/14 00:26:50;;;;;;;16.55;7.50;;;;;;;16.13;86.94;97418.31;5008358;28;20040;-80
2023/10/14 00:31:42;;;;;;;13.90;8.25;;;;;;;16.16;86.69;97423.03;5020087;28;20795;-81
2023/10/14 00:34:08;;;;;;;17.60;7.93;;;;;;;16.07;87.42;97430.38;5012925;28;20029;-81
2023/10/14 00:36:36;;;;;;;14.02;7.75;;;;;;;16.06;87.82;97417.19;5028053;28;20029;-81
2023/10/14 00:40:00;;;;;;;15.18;8.45;;;;;;;16.07;86.92;97405.34;5031198;28;20052;-81
2023/10/14 00:41:55;;;;;;;13.20;7.25;;;;;;;15.98;87.54;97388.41;5023800;28;20041;-81
2023/10/14 00:44:24;;;;;;;15.50;9.27;;;;;;;15.95;87.47;97371.00;5029161;28;20112;-81
2023/10/14 00:46:50;;;;;;;12.23;7.78;;;;;;;15.97;87.88;97373.34;4991575;28;20484;-81
2023/10/14 00:49:31;;;;;;;15.15;7.63;;;;;;;16.06;87.50;97377.63;5004879;28;20040;-81
2023/10/14 00:51:59;;;;;;;11.07;7.20;;;;;;;16.00;86.89;97352.00;5004075;28;20048;-81
2023/10/14 00:59:50;;;;;;;14.35;8.48;;;;;;;15.95;86.86;97352.16;5031604;28;20092;-81
2023/10/14 01:02:29;;;;;;;12.38;7.88;;;;;;;15.91;86.62;97345.84;5031643;28;20048;-81
2023/10/14 01:04:55;;;;;;;12.50;7.00;;;;;;;15.89;86.57;97342.66;5014144;28;20184;-81
2023/10/14 01:07:21;;;;;;;14.50;7.28;;;;;;;15.99;86.13;97353.09;5027951;28;20022;-81
2023/10/14 01:09:53;;;;;;;14.45;7.90;;;;;;;15.98;85.37;97343.44;5013638;28;20040;-82
2023/10/14 01:12:55;;;;;;;11.68;6.38;;;;;;;16.03;85.24;97332.50;5028583;28;20025;-81
2023/10/14 01:15:19;;;;;;;11.18;7.43;;;;;;;15.89;85.17;97329.22;5024688;28;20037;-81
2023/10/14 01:17:44;;;;;;;11.15;7.05;;;;;;;15.87;86.20;97327.94;5013191;28;20079;-81
2023/10/14 01:22:51;;;;;;;9.82;6.78;;;;;;;15.67;86.25;97318.63;5011181;28;20134;-81
2023/10/14 01:25:19;;;;;;;17.10;6.90;;;;;;;15.89;85.44;97323.03;5008763;28;20041;-81
2023/10/14 01:27:45;;;;;;;12.98;6.93;;;;;;;15.64;86.47;97319.25;5028162;28;20512;-81
2023/10/14 01:30:18;;;;;;;12.65;6.40;;;;;;;15.92;85.63;97314.34;5026163;28;20037;-81
2023/10/14 01:37:56;;;;;;;15.65;7.07;;;;;;;15.63;86.60;97291.59;5022111;28;20033;-81
2023/10/14 01:42:57;;;;;;;12.48;7.03;;;;;;;15.93;85.40;97289.78;5030355;28;20090;-81
2023/10/14 01:45:33;;;;;;;9.93;6.45;;;;;;;15.75;85.55;97272.91;5028710;28;20048;-80
2023/10/14 01:50:55;;;;;;;16.80;8.02;;;;;;;15.68;86.52;97271.81;5020654;28;20069;-81
2023/10/14 01:53:27;;;;;;;13.50;7.23;;;;;;;15.77;85.79;97264.50;5016671;28;20099;-81
2023/10/14 01:55:55;;;;;;;20.60;7.28;;;;;;;15.81;86.22;97264.66;5021367;28;20029;-81
2023/10/14 01:58:32;;;;;;;8.43;6.50;;;;;;;15.89;85.77;97239.63;5007513;28;20070;-81
2023/10/14 02:03:47;;;;;;;14.27;7.30;;;;;;;15.79;85.73;97242.66;5006171;28;20113;-81
2023/10/14 02:08:46;;;;;;;11.68;7.55;;;;;;;15.76;85.30;97238.72;5020155;28;20076;-81
2023/10/14 02:11:11;;;;;;;15.57;8.77;;;;;;;15.67;85.63;97237.94;5020529;28;20076;-81
2023/10/14 02:13:37;;;;;;;13.57;8.20;;;;;;;15.77;85.17;97242.97;4985023;28;20524;-81
2023/10/14 02:16:06;;;;;;;11.77;8.13;;;;;;;15.68;85.28;97226.84;5002118;28;20040;-81
2023/10/14 02:18:36;;;;;;;11.68;7.07;;;;;;;15.62;85.89;97224.66;5024272;28;20147;-81
2023/10/14 02:21:05;;;;;;;14.63;8.15;;;;;;;15.77;85.52;97234.91;5003765;28;20025;-81
2023/10/14 02:23:45;;;;;;;14.93;8.20;;;;;;;15.74;85.38;97232.88;5003896;28;20037;-81
2023/10/14 02:26:31;;;;;;;14.55;8.30;;;;;;;15.68;85.47;97234.94;5020267;28;20025;-82
2023/10/14 02:28:57;;;;;;;12.80;7.85;;;;;;;15.71;85.53;97231.59;5019154;28;20030;-81
2023/10/14 02:31:29;;;;;;;11.98;8.00;;;;;;;15.64;85.29;97215.16;5011896;28;20079;-81
2023/10/14 02:34:06;;;;;;;16.67;8.38;;;;;;;15.71;84.80;97222.75;5002358;28;20793;-81
2023/10/14 02:36:35;;;;;;;14.43;8.38;;;;;;;15.75;85.12;97224.47;5005970;28;20072;-81
2023/10/14 02:39:04;;;;;;;15.73;8.75;;;;;;;15.80;84.76;97225.41;5003496;28;20392;-81
2023/10/14 02:41:32;;;;;;;14.85;8.45;;;;;;;15.72;84.46;97217.06;4992466;28;20030;-81
2023/10/14 02:44:19;;;;;;;14.60;8.80;;;;;;;15.77;84.28;97226.84;5004174;28;20037;-81
2023/10/14 02:46:45;;;;;;;15.88;8.45;;;;;;;15.74;84.39;97240.94;5003295;28;20800;-81
2023/10/14 02:49:14;;;;;;;17.92;9.98;;;;;;;15.77;84.33;97244.91;5001510;28;20108;-81
2023/10/14 02:51:44;;;;;;;12.32;8.40;;;;;;;15.75;84.83;97234.44;4989943;28;20033;-81
2023/10/14 02:54:33;;;;;;;14.13;8.20;;;;;;;15.71;84.62;97241.56;5003653;28;20056;-81
2023/10/14 02:57:00;;;;;;;16.05;8.15;;;;;;;15.73;84.94;97242.03;5010417;28;20052;-80
2023/10/14 02:59:43;;;;;;;17.10;8.20;;;;;;;15.66;84.89;97245.22;5004315;28;20124;-81
2023/10/14 03:04:55;;;;;;;12.13;7.75;;;;;;;15.71;85.13;97245.06;5021865;28;20017;-81
2023/10/14 03:07:50;;;;;;;17.70;7.95;;;;;;;15.60;85.79;97245.72;5020565;28;20029;-80
2023/10/14 03:12:49;;;;;;;11.50;7.63;;;;;;;15.66;85.91;97247.13;5019974;28;20026;-81
2023/10/14 03:15:19;;;;;;;15.05;8.02;;;;;;;15.57;86.70;97262.50;5021674;28;20036;-81
2023/10/14 03:17:58;;;;;;;17.33;7.70;;;;;;;15.66;85.80;97320.53;5015264;28;20044;-81
2023/10/14 03:23:12;;;;;;;15.48;7.72;;;;;;;15.50;87.83;97340.97;5020916;28;20038;-82
2023/10/14 03:25:38;;;;;;;16.77;7.05;;;;;;;15.45;88.74;97365.31;4973254;28;20044;-80
2023/10/14 03:30:44;;;;;;;20.38;7.47;;;;;;;15.48;89.30;97364.69;5020316;28;20028;-82
2023/10/14 03:33:10;;;;;;;18.73;7.43;;;;;;;15.47;89.78;97371.16;5002384;28;20030;-82
2023/10/14 03:35:43;;;;;;;13.23;7.20;;;;;;;15.49;90.49;97384.28;4986129;28;20801;-81
2023/10/14 03:38:22;;;;;;;10.23;5.32;;;;;;;15.51;90.44;97376.69;4985757;28;20042;-82
2023/10/14 03:43:15;;;;;;;14.48;6.57;;;;;;;15.48;90.32;97391.59;5003406;28;20477;-82
2023/10/14 03:48:45;;;;;;;6.85;4.82;;;;;;;15.31;91.16;97394.19;4992297;28;20033;-82
2023/10/14 03:51:24;;;;;;;10.73;4.35;;;;;;;15.22;91.38;97406.84;5020695;28;20040;-82
2023/10/14 03:53:53;;;;;;;10.88;4.28;;;;;;;15.36;91.58;97404.81;5017936;28;20041;-82
2023/10/14 03:56:27;;;;;;;5.43;4.05;;;;;;;15.41;90.70;97412.75;5020523;28;20124;-82
2023/10/14 03:58:57;;;;;;;9.98;4.53;;;;;;;15.32;91.30;97405.75;5023760;28;20108;-82
2023/10/14 04:01:30;;;;;;;7.28;3.90;;;;;;;15.30;91.93;97399.91;5023096;28;20476;-81
2023/10/14 04:03:56;;;;;;;5.72;3.30;;;;;;;15.35;91.90;97402.44;4990483;28;20381;-82
2023/10/14 04:06:23;;;;;;;5.95;3.92;;;;;;;15.44;90.98;97397.91;5025373;28;20025;-81
2023/10/14 04:08:49;;;;;;;6.82;3.08;;;;;;;15.37;92.01;97416.38;5001762;28;20082;-82
2023/10/14 04:11:16;;;;;;;9.75;4.00;;;;;;;15.42;91.79;97426.97;5003666;28;20029;-82
2023/10/14 04:19:44;;;;;;;7.45;3.13;;;;;;;15.31;91.65;97477.53;4993885;28;20464;-81
2023/10/14 04:25:06;;;;;;;5.75;4.25;;;;;;;15.30;91.53;97473.28;5007664;28;20037;-81
2023/10/14 04:30:38;;;;;;;2.65;2.13;;;;;;;15.27;91.14;97490.03;5004111;28;20749;-81
2023/10/14 04:33:16;;;;;;;5.53;1.63;;;;;;;15.13;90.97;97496.63;5000173;28;20057;-81
2023/10/14 04:36:08;;;;;;;1.63;1.15;;;;;;;14.90;92.32;97491.31;5026560;28;20100;-81
2023/10/14 04:38:42;;;;;;;1.15;1.02;;;;;;;14.76;91.54;97487.94;5002342;28;20033;-81
2023/10/14 04:41:14;;;;;;;1.67;1.13;;;;;;;14.78;91.69;97506.41;5006857;28;20041;-81
2023/10/14 04:46:16;;;;;;;0.77;0.77;;;;;;;14.64;90.51;97532.53;5017384;28;20040;-80
2023/10/14 04:48:50;;;;;;;1.98;1.25;;;;;;;14.60;90.69;97539.63;5018165;28;20045;-81
2023/10/14 04:51:16;;;;;;;0.85;0.80;;;;;;;14.74;90.09;97559.94;5006390;28;20099;-81
2023/10/14 04:53:46;;;;;;;2.80;0.60;;;;;;;14.75;89.71;97564.22;4987528;28;20034;-81
2023/10/14 04:56:12;;;;;;;1.65;0.70;;;;;;;14.59;90.52;97568.38;5000860;28;20025;-82
2023/10/14 04:58:40;;;;;;;1.45;0.60;;;;;;;14.66;89.61;97581.38;5005769;28;20566;-82
2023/10/14 05:01:10;;;;;;;0.68;0.50;;;;;;;14.78;89.32;97606.59;5025266;28;20499;-81
2023/10/14 05:03:35;;;;;;;1.35;0.70;;;;;;;14.52;89.05;97613.66;5007562;28;20108;-81
2023/10/14 05:08:44;;;;;;;1.15;0.60;;;;;;;14.34;88.23;97622.66;5003829;28;20041;-80
2023/10/14 05:11:12;;;;;;;0.70;0.50;;;;;;;14.69;89.21;97623.75;4985240;28;20095;-81
2023/10/14 05:13:39;;;;;;;2.70;0.45;;;;;;;14.68;88.03;97649.81;5005544;28;20495;-81
2023/10/14 05:16:15;;;;;;;1.95;0.60;;;;;;;14.33;88.71;97655.19;5005005;28;20187;-81
2023/10/14 05:18:58;;;;;;;0.50;0.50;;;;;;;14.56;88.95;97660.28;5022914;28;20026;-81
2023/10/14 05:21:57;;;;;;;1.20;0.50;;;;;;;14.53;88.33;97663.56;5007616;28;20416;-81
2023/10/14 05:24:15;;;;;;;1.80;0.82;;;;;;;14.32;88.35;97683.13;5020175;28;20056;-80
2023/10/14 05:26:45;;;;;;;0.30;0.30;;;;;;;14.23;87.97;97677.63;5005231;28;20073;-81
2023/10/14 05:29:18;;;;;;;0.40;0.40;;;;;;;14.37;89.19;97697.25;4989826;28;20048;-81
2023/10/14 05:31:45;;;;;;;1.88;0.65;;;;;;;14.46;88.12;97706.16;5001611;28;21105;-81
2023/10/14 05:34:10;;;;;;;0.73;0.63;;;;;;;14.22;88.72;97714.41;4994919;28;20087;-82
2023/10/14 05:36:36;;;;;;;0.50;0.50;;;;;;;14.23;88.96;97723.25;5004166;28;20049;-82
2023/10/14 05:39:03;;;;;;;0.30;0.30;;;;;;;14.04;89.33;97731.38;5002587;28;20033;-81
2023/10/14 05:41:29;;;;;;;0.70;0.55;;;;;;;14.11;89.41;97742.53;5019929;28;20029;-81
2023/10/14 05:43:55;;;;;;;3.08;1.20;;;;;;;13.83;88.52;97767.75;5024578;28;20049;-81
2023/10/14 05:46:20;;;;;;;4.43;1.05;;;;;;;13.75;88.35;97756.91;4988052;28;20030;-81
2023/10/14 05:48:46;;;;;;;1.17;0.82;;;;;;;14.05;87.67;97773.25;5013261;28;20033;-81
2023/10/14 05:51:13;;;;;;;6.28;1.45;;;;;;;14.01;86.84;97798.28;5006791;28;20112;-81
2023/10/14 05:53:42;;;;;;;6.75;2.17;;;;;;;13.68;87.26;97804.75;4989165;28;20068;-82
2023/10/14 05:56:14;;;;;;;6.95;2.25;;;;;;;13.48;85.15;97801.31;5005901;28;20037;-81
2023/10/14 05:58:42;;;;;;;9.52;2.10;;;;;;;13.83;85.85;97813.34;5025140;28;20029;-81
2023/10/14 06:01:16;;;;;;;10.32;2.35;;;;;;;13.53;85.39;97820.00;5024940;28;20070;-81
2023/10/14 06:03:42;;;;;;;10.27;2.00;;;;;;;13.90;85.40;97829.84;5008919;28;21839;-80
2023/10/14 06:06:14;;;;;;;9.82;2.00;;;;;;;13.78;86.18;97836.78;5004823;28;20076;-80
2023/10/14 06:08:40;;;;;;;7.40;2.28;;;;;;;13.39;85.46;97848.63;4998819;28;20040;-81
2023/10/14 06:11:06;;;;;;;6.82;2.47;;;;;;;13.73;85.71;97855.63;5023380;28;20030;-81
2023/10/14 06:13:32;;;;;;;9.40;2.85;;;;;;;13.94;85.29;97868.41;5006889;28;20040;-81
2023/10/14 06:16:01;;;;;;;7.57;2.22;;;;;;;13.63;86.11;97864.63;4988197;28;20041;-81
2023/10/14 06:18:29;;;;;;;9.18;2.30;;;;;;;13.34;86.20;97875.53;5003198;28;20060;-80
2023/10/14 06:20:59;;;;;;;7.60;2.10;;;;;;;13.43;82.91;97895.19;4986010;28;20815;-80
2023/10/14 06:23:26;;;;;;;8.98;3.35;;;;;;;13.93;85.20;97899.03;5021653;28;20037;-81
2023/10/14 06:25:53;;;;;;;13.52;3.58;;;;;;;13.59;86.18;97903.81;5001771;28;20037;-81
2023/10/14 06:28:19;;;;;;;5.72;2.25;;;;;;;13.62;86.21;97918.53;5004064;28;20512;-81
2023/10/14 06:30:45;;;;;;;11.80;3.38;;;;;;;13.67;85.24;97927.31;5020405;28;20032;-81
2023/10/14 06:33:11;;;;;;;16.02;2.80;;;;;;;12.85;83.72;97927.81;4997554;28;20568;-81
2023/10/14 06:35:42;;;;;;;9.77;2.53;;;;;;;13.53;85.64;97948.69;5018852;28;20036;-81
2023/10/14 06:38:09;;;;;;;10.35;3.85;;;;;;;12.79;81.64;97948.50;5016072;28;20028;-80
2023/10/14 06:40:36;;;;;;;13.25;2.60;;;;;;;13.16;83.09;97969.28;5015014;28;20033;-81
2023/10/14 06:43:07;;;;;;;8.73;2.65;;;;;;;13.57;84.56;97970.34;5000077;28;20029;-81
2023/10/14 06:45:34;;;;;;;9.32;2.63;;;;;;;13.32;84.86;97984.88;5001519;28;20033;-81
2023/10/14 06:48:03;;;;;;;9.35;2.60;;;;;;;13.76;84.51;97989.16;5031898;28;20030;-81
2023/10/14 06:50:29;;;;;;;13.55;3.55;;;;;;;13.32;85.64;98000.94;5018148;28;20056;-81
2023/10/14 06:53:18;;;;;;;8.27;2.80;;;;;;;13.74;85.21;98010.09;5018987;28;20136;-81
2023/10/14 06:55:41;;;;;;;9.63;2.83;;;;;;;13.07;85.33;98008.50;5004040;28;20045;-81
2023/10/14 06:58:09;;;;;;;8.10;2.40;;;;;;;13.66;85.48;98019.56;4988827;28;20072;-82
2023/10/14 07:00:37;;;;;;;13.63;2.75;;;;;;;13.32;84.94;98021.63;5002889;28;20136;-82
2023/10/14 07:03:06;;;;;;;6.82;2.70;;;;;;;13.43;83.77;98037.28;5019328;28;20044;-81
2023/10/14 07:05:43;;;;;;;9.82;2.30;;;;;;;13.46;83.75;98034.03;5001990;28;20033;-82
2023/10/14 07:08:08;;;;;;;;;;;;;;;13.81;83.52;98034.66;5005242;28;20041;-81
2023/10/14 07:10:33;;;;;;;8.00;2.07;;;;;;;13.24;85.49;98028.41;5003033;28;20335;-82
2023/10/14 07:13:00;;;;;;;5.45;1.88;;;;;;;13.80;84.82;98033.88;5020869;28;20120;-82
2023/10/14 07:15:27;;;;;;;9.10;2.92;;;;;;;13.81;84.37;98045.38;5017939;28;20037;-81
2023/10/14 07:17:54;;;;;;;9.85;2.55;;;;;;;13.57;85.11;98041.94;5005138;28;20547;-82
2023/10/14 07:20:20;;;;;;;8.30;2.80;;;;;;;13.53;84.51;98052.44;5005218;28;20052;-82
2023/10/14 07:22:45;;;;;;;9.88;2.47;;;;;;;13.53;85.17;98057.81;5020152;28;20074;-81
2023/10/14 07:25:11;;;;;;;10.75;3.15;;;;;;;13.52;83.97;98059.69;4986711;28;20053;-81
2023/10/14 07:27:40;;;;;;;8.88;2.10;;;;;;;13.24;85.18;98063.22;5001777;28;20038;-81
2023/10/14 07:30:13;;;;;;;7.22;2.30;;;;;;;13.48;86.08;98064.03;4986180;28;20570;-81
2023/10/14 07:32:48;;;;;;;9.43;2.20;;;;;;;13.53;83.92;98079.25;5019094;28;20035;-81
2023/10/14 07:35:15;;;;;;;7.18;2.30;;;;;;;13.56;83.63;98069.84;4985471;28;20039;-81
2023/10/14 07:37:45;;;;;;;4.97;2.25;;;;;;;13.66;83.91;98083.13;5000250;28;20033;-81
2023/10/14 07:40:22;;;;;;;12.88;3.20;;;;;;;13.50;83.51;98080.63;5025919;28;20405;-81
2023/10/14 07:42:56;;;;;;;17.65;3.15;;;;;;;12.97;83.93;98087.06;4993562;28;20033;-81
2023/10/14 07:45:28;;;;;;;10.73;2.60;;;;;;;13.01;85.72;98089.97;5009149;28;20451;-81
2023/10/14 07:47:54;;;;;;;11.43;2.83;;;;;;;13.18;85.28;98096.53;5002938;28;20076;-81
2023/10/14 07:50:20;;;;;;;11.02;4.75;;;;;;;13.32;85.02;98096.66;5000763;28;20029;-81
2023/10/14 07:52:45;;;;;;;8.15;2.22;;;;;;;13.49;84.18;98092.44;5001290;28;20048;-82
2023/10/14 07:55:15;;;;;;;12.65;2.83;;;;;;;13.55;83.86;98125.34;5005865;28;20036;-81
2023/10/14 07:57:41;;;;;;;9.90;2.42;;;;;;;13.70;82.32;98110.97;5026799;28;20026;-81
2023/10/14 08:00:12;;;;;;;11.88;3.60;;;;;;;13.75;82.40;98116.28;5028550;28;20047;-81
2023/10/14 08:02:39;;;;;;;10.43;3.55;;;;;;;13.15;84.46;98126.56;4988589;28;20061;-81
2023/10/14 08:05:06;;;;;;;8.13;2.70;;;;;;;13.57;83.05;98128.53;5013532;28;20514;-81
2023/10/14 08:07:34;;;;;;;11.90;3.22;;;;;;;13.59;83.07;98133.63;5010086;28;20076;-81
2023/10/14 08:10:16;;;;;;;9.05;4.38;;;;;;;13.68;83.09;98142.63;5026898;28;20068;-80
2023/10/14 08:12:43;;;;;;;11.85;3.13;;;;;;;13.53;82.78;98147.09;5004291;28;20052;-81
2023/10/14 08:15:09;;;;;;;18.02;3.60;;;;;;;13.11;83.80;98130.88;4973030;28;20033;-81
2023/10/14 08:17:34;;;;;;;8.98;2.35;;;;;;;13.44;82.57;98146.13;5005733;28;20095;-81
2023/10/14 08:19:59;;;;;;;9.98;2.50;;;;;;;13.55;81.64;98138.75;4990322;28;20651;-81
2023/10/14 08:22:25;;;;;;;7.25;2.50;;;;;;;13.58;81.97;98140.06;4973358;28;20036;-81
2023/10/14 08:24:50;;;;;;;11.75;2.55;;;;;;;13.51;82.38;98153.81;4975117;28;20037;-81
2023/10/14 08:27:16;;;;;;;10.45;3.30;;;;;;;13.67;82.00;98166.00;5007893;28;20037;-82
2023/10/14 08:29:42;;;;;;;10.55;2.63;;;;;;;13.62;82.59;98158.00;5023842;28;20025;-82
2023/10/14 08:32:07;;;;;;;10.23;2.95;;;;;;;13.65;82.02;98159.31;4974871;28;20049;-81
2023/10/14 08:34:32;;;;;;;13.25;2.78;;;;;;;13.57;82.06;98166.09;5018321;28;20497;-81
2023/10/14 08:36:58;;;;;;;9.65;2.50;;;;;;;13.70;81.44;98164.59;5004576;28;20025;-81
2023/10/14 08:39:24;;;;;;;15.80;2.63;;;;;;;13.49;80.91;98167.53;4987373;28;20069;-81
2023/10/14 08:41:51;;;;;;;8.43;2.75;;;;;;;13.83;81.28;98178.13;5006028;28;20033;-82
2023/10/14 08:44:20;;;;;;;11.18;2.83;;;;;;;13.85;80.60;98183.22;4991135;28;20124;-81
2023/10/14 08:46:47;;;;;;;17.90;5.90;;;;;;;13.70;80.00;98191.41;4988438;28;20029;-82
2023/10/14 08:49:13;;;;;;;6.85;1.98;;;;;;;13.64;80.33;98179.16;5005808;28;20060;-81
2023/10/14 08:51:42;;;;;;;8.77;2.92;;;;;;;13.52;80.40;98179.53;5021918;28;20072;-81
2023/10/14 08:54:10;;;;;;;5.60;1.80;;;;;;;13.57;79.92;98187.53;5024551;28;20076;-82
2023/10/14 08:56:36;;;;;;;13.95;2.38;;;;;;;13.47;78.98;98166.19;5023218;28;20172;-81
2023/10/14 08:59:03;;;;;;;6.57;2.35;;;;;;;13.69;78.38;98182.59;5007663;28;20037;-81
2023/10/14 09:01:28;;;;;;;10.90;2.42;;;;;;;13.41;79.34;98186.09;4972611;28;20041;-81
2023/10/14 09:03:54;;;;;;;8.80;2.63;;;;;;;13.40;78.26;98195.22;4986145;28;20095;-82
2023/10/14 09:06:21;;;;;;;11.02;2.10;;;;;;;13.91;79.44;98200.88;5003841;28;20080;-81
2023/10/14 09:08:51;;;;;;;6.95;2.22;;;;;;;13.57;78.65;98189.41;4974020;28;20176;-81
2023/10/14 09:11:33;;;;;;;14.05;2.70;;;;;;;13.72;78.50;98205.34;5020844;28;20053;-81
2023/10/14 09:14:04;;;;;;;5.82;2.17;;;;;;;13.72;78.47;98194.63;5003318;28;20037;-81
2023/10/14 09:16:32;;;;;;;16.02;2.92;;;;;;;13.34;78.01;98199.84;5023985;28;20396;-82
2023/10/14 09:18:59;;;;;;;7.57;2.42;;;;;;;13.54;77.54;98210.34;5021863;28;20035;-81
2023/10/14 09:21:25;;;;;;;11.02;3.55;;;;;;;13.81;77.83;98217.06;5002821;28;20822;-80
2023/10/14 09:23:51;;;;;;;7.82;2.70;;;;;;;13.51;76.57;98229.69;4988435;28;20116;-81
2023/10/14 09:26:18;;;;;;;10.02;2.88;;;;;;;13.85;77.70;98218.88;5036330;28;21506;-81
2023/10/14 09:28:45;;;;;;;9.27;2.80;;;;;;;13.68;77.62;98223.09;4988757;28;20030;-81
2023/10/14 09:31:11;;;;;;;10.75;3.03;;;;;;;13.83;78.56;98236.34;5020545;28;20473;-81
2023/10/14 09:33:44;;;;;;;9.25;3.00;;;;;;;13.63;77.24;98249.97;5022364;28;20033;-81
2023/10/14 09:36:12;;;;;;;8.90;3.03;;;;;;;13.83;76.98;98237.16;5020383;28;20099;-82
2023/10/14 09:38:39;;;;;;;10.75;3.28;;;;;;;13.82;77.01;98248.19;5018918;28;20049;-81
2023/10/14 09:41:07;;;;;;;12.48;3.33;;;;;;;13.48;76.04;98240.97;4970397;28;20064;-81
2023/10/14 09:43:42;;;;;;;13.65;3.25;;;;;;;13.29;75.39;98240.06;5004279;28;20021;-81
2023/10/14 09:46:12;;;;;;;10.03;3.27;;;;;;;13.73;76.52;98255.22;5003299;28;20029;-81
2023/10/14 09:48:39;;;;;;;12.68;3.78;;;;;;;13.96;77.09;98249.09;5021253;28;20274;-81
2023/10/14 09:51:08;;;;;;;9.10;3.45;;;;;;;13.80;76.06;98253.03;5001614;28;20025;-81
2023/10/14 09:53:35;;;;;;;6.55;3.55;;;;;;;14.14;77.37;98277.88;4999315;28;20037;-81
2023/10/14 09:56:06;;;;;;;10.07;2.90;;;;;;;13.68;76.71;98266.00;5020313;28;20037;-81
2023/10/14 09:58:36;;;;;;;10.20;3.50;;;;;;;13.98;75.23;98271.88;4990461;28;20041;-81
2023/10/14 10:01:05;;;;;;;9.57;3.15;;;;;;;14.03;76.70;98289.81;5002585;28;20036;-81
2023/10/14 10:03:51;;;;;;;12.30;3.50;;;;;;;13.85;77.14;98287.81;5019518;28;20108;-81
2023/10/14 10:06:35;;;;;;;8.63;2.85;;;;;;;14.17;75.81;98294.22;5001087;28;20634;-82
2023/10/14 10:09:21;;;;;;;13.95;4.15;;;;;;;13.72;71.93;98299.22;5017430;28;20135;-82
2023/10/14 10:11:50;;;;;;;12.38;2.83;;;;;;;13.49;69.35;98298.09;5024524;28;20423;-82
2023/10/14 10:14:25;;;;;;;14.10;2.78;;;;;;;13.65;69.57;98307.59;5005469;28;20065;-81
2023/10/14 10:16:52;;;;;;;15.45;4.50;;;;;;;13.41;69.06;98288.75;5021582;28;20037;-81
2023/10/14 10:19:18;;;;;;;16.00;3.53;;;;;;;13.70;69.86;98306.75;5024895;28;20029;-81
2023/10/14 10:22:12;;;;;;;16.73;3.30;;;;;;;13.56;69.08;98311.97;5021710;28;20037;-82
2023/10/14 10:24:41;;;;;;;10.05;2.53;;;;;;;13.74;69.43;98303.22;5005879;28;20091;-81
2023/10/14 10:27:10;;;;;;;8.13;2.60;;;;;;;13.77;70.30;98312.59;5004435;28;20028;-82
2023/10/14 10:29:49;;;;;;;12.63;3.47;;;;;;;13.73;71.13;98307.00;5018885;28;20099;-82
2023/10/14 10:32:19;;;;;;;11.18;2.72;;;;;;;13.65;68.09;98304.13;5007292;28;20180;-81
2023/10/14 10:35:06;;;;;;;9.52;2.92;;;;;;;14.11;69.67;98314.13;4988682;28;20080;-81
2023/10/14 10:37:34;;;;;;;22.98;3.70;;;;;;;13.85;68.83;98306.59;5019098;28;20068;-81
2023/10/14 10:40:05;;;;;;;10.98;3.10;;;;;;;13.71;69.16;98305.69;5006839;28;20135;-81
2023/10/14 10:42:31;;;;;;;6.85;2.70;;;;;;;14.10;69.09;98314.44;5003965;28;20053;-81
2023/10/14 10:44:58;;;;;;;13.77;3.33;;;;;;;14.20;69.25;98319.69;5007019;28;22323;-80
2023/10/14 10:47:23;;;;;;;7.90;2.00;;;;;;;14.30;68.64;98316.94;5003788;28;20038;-81
2023/10/14 10:49:48;;;;;;;16.52;3.42;;;;;;;14.16;68.24;98307.91;4992840;28;20052;-81
2023/10/14 10:52:14;;;;;;;14.52;3.03;;;;;;;14.21;67.45;98297.13;5024919;28;20313;-81
2023/10/14 10:54:45;;;;;;;6.55;2.17;;;;;;;14.36;67.32;98301.56;5004987;28;20079;-81
2023/10/14 10:57:11;;;;;;;8.27;3.03;;;;;;;14.18;66.79;98292.31;5005169;28;20041;-81
2023/10/14 10:59:38;;;;;;;8.68;2.45;;;;;;;14.36;67.08;98301.56;4976229;28;20034;-81
2023/10/14 11:02:11;;;;;;;10.30;2.35;;;;;;;14.19;66.66;98299.31;5008069;28;20473;-82
2023/10/14 11:04:39;;;;;;;14.43;2.55;;;;;;;14.25;65.49;98306.22;5023710;28;20159;-82
2023/10/14 11:07:09;;;;;;;12.32;3.30;;;;;;;14.18;65.18;98313.81;5022354;28;20029;-81
2023/10/14 11:09:39;;;;;;;9.30;2.28;;;;;;;14.08;65.58;98313.91;4995448;28;20485;-81
2023/10/14 11:12:05;;;;;;;7.78;2.80;;;;;;;14.11;65.29;98305.28;4993162;28;20029;-81
2023/10/14 11:14:31;;;;;;;9.95;3.65;;;;;;;14.12;64.74;98310.38;5011705;28;20191;-81
2023/10/14 11:16:57;;;;;;;13.65;3.08;;;;;;;14.12;65.08;98314.94;5009933;28;20149;-81
2023/10/14 11:19:26;;;;;;;7.50;2.45;;;;;;;13.98;65.61;98330.91;5010571;28;20030;-81
2023/10/14 11:21:53;;;;;;;9.73;2.88;;;;;;;14.04;65.53;98332.44;5008773;28;20029;-80
2023/10/14 11:24:19;;;;;;;9.82;3.30;;;;;;;14.01;65.65;98327.66;5026490;28;20078;-80
2023/10/14 11:26:45;;;;;;;11.18;3.05;;;;;;;13.96;66.57;98313.47;5007049;28;20123;-80
2023/10/14 11:29:11;;;;;;;10.90;3.20;;;;;;;14.18;65.84;98319.16;5023782;28;20056;-80
2023/10/14 11:31:40;;;;;;;9.95;3.45;;;;;;;14.08;65.89;98325.44;5010424;28;20044;-81
2023/10/14 11:34:06;;;;;;;11.55;3.17;;;;;;;14.09;66.88;98315.50;5006398;28;20033;-81
2023/10/14 11:36:32;;;;;;;16.35;2.70;;;;;;;14.02;66.36;98326.56;5024338;28;20029;-80
2023/10/14 11:38:58;;;;;;;11.77;2.90;;;;;;;13.97;66.84;98325.81;5009101;28;20086;-81
2023/10/14 11:41:27;;;;;;;10.07;2.55;;;;;;;14.18;66.85;98322.66;5028588;28;20071;-80
2023/10/14 11:43:53;;;;;;;11.90;3.08;;;;;;;14.13;66.57;98316.56;4992929;28;20025;-80
2023/10/14 11:46:18;;;;;;;13.18;3.45;;;;;;;14.26;66.23;98311.28;5010328;28;20037;-80
2023/10/14 11:48:46;;;;;;;12.90;3.42;;;;;;;14.36;66.57;98315.78;4993655;28;20037;-80
2023/10/14 11:51:16;;;;;;;20.88;4.28;;;;;;;14.30;67.41;98311.56;5025487;28;20044;-81
2023/10/14 11:53:43;;;;;;;11.27;3.30;;;;;;;14.45;66.70;98300.66;5010270;28;20088;-80
2023/10/14 11:56:13;;;;;;;10.48;2.92;;;;;;;14.50;67.01;98307.84;5010977;28;20029;-80
2023/10/14 11:58:40;;;;;;;22.33;3.42;;;;;;;14.52;66.82;98317.22;5009884;28;20036;-81
2023/10/14 12:01:06;;;;;;;11.00;3.33;;;;;;;14.35;66.80;98319.53;5025890;28;20389;-81
2023/10/14 12:03:32;;;;;;;15.15;3.28;;;;;;;14.25;65.99;98303.53;5004197;28;20051;-81
2023/10/14 12:05:58;;;;;;;21.90;2.85;;;;;;;14.19;65.01;98315.41;5027186;28;20060;-82
2023/10/14 12:08:32;;;;;;;13.18;3.30;;;;;;;14.23;65.56;98300.34;5023730;28;20396;-81
2023/10/14 12:10:58;;;;;;;10.35;3.40;;;;;;;14.29;64.74;98309.94;5005262;28;20034;-82
2023/10/14 12:13:26;;;;;;;10.15;3.30;;;;;;;14.10;65.28;98307.19;5008669;28;20061;-81
2023/10/14 12:15:52;;;;;;;14.63;3.08;;;;;;;14.15;64.55;98317.84;4996136;28;20385;-81
2023/10/14 12:18:17;;;;;;;12.50;3.83;;;;;;;14.02;64.31;98315.84;5012810;28;20030;-82
2023/10/14 12:20:48;;;;;;;11.95;3.00;;;;;;;13.92;64.12;98315.13;5030761;28;20032;-81
2023/10/14 12:23:20;;;;;;;13.15;3.10;;;;;;;14.08;63.97;98305.88;5022380;28;20144;-81
2023/10/14 12:25:49;;;;;;;8.77;2.83;;;;;;;14.12;63.45;98313.06;4993593;28;20124;-81
2023/10/14 12:28:25;;;;;;;5.90;2.53;;;;;;;13.85;62.60;98298.56;5011360;28;20116;-81
2023/10/14 12:30:58;;;;;;;11.43;3.58;;;;;;;14.05;62.69;98326.00;5028704;28;20057;-81
2023/10/14 12:33:35;;;;;;;11.05;3.17;;;;;;;14.08;61.90;98322.78;5029143;28;20045;-82
2023/10/14 12:36:08;;;;;;;15.07;3.08;;;;;;;13.99;62.29;98327.16;5003250;28;20534;-81
2023/10/14 12:38:35;;;;;;;8.90;2.75;;;;;;;13.87;62.95;98312.50;5003970;28;20380;-81
2023/10/14 12:41:02;;;;;;;11.45;2.42;;;;;;;13.74;62.14;98323.91;5006735;28;20109;-81